createdAt,value
2019-05-02T00:01:09.543Z,18.12
2019-05-02T00:03:41.101Z,10.03
2019-05-02T00:06:10.808Z,16.32
2019-05-02T00:08:40.973Z,17.75
2019-05-02T00:11:10.909Z,18.05
2019-05-02T00:13:40.046Z,20.37
2019-05-02T00:16:13.935Z,18.37
2019-05-02T00:18:40.425Z,19.37
2019-05-02T00:21:12.712Z,16.35
2019-05-02T00:23:41.855Z,16.27
2019-05-02T00:26:10.988Z,20.95
2019-05-02T00:28:42.859Z,17.70
2019-05-02T00:31:11.529Z,18.98
2019-05-02T00:33:42.506Z,20.57
2019-05-02T00:36:11.672Z,23.00
2019-05-02T00:38:40.921Z,18.45
2019-05-02T00:41:10.064Z,22.25
2019-05-02T00:43:39.245Z,17.95
2019-05-02T00:46:09.423Z,17.98
2019-05-02T00:48:43.948Z,20.97
2019-05-02T00:51:14.163Z,22.77
2019-05-02T00:53:48.107Z,19.57
2019-05-02T00:56:15.184Z,18.15
2019-05-02T00:58:44.435Z,17.67
2019-05-02T01:01:29.551Z,17.35
2019-05-02T01:04:02.784Z,19.62
2019-05-02T01:06:31.961Z,22.10
2019-05-02T01:09:01.174Z,21.95
2019-05-02T01:11:32.189Z,19.65
2019-05-02T01:14:01.208Z,19.00
2019-05-02T01:16:30.432Z,20.20
2019-05-02T01:18:59.616Z,21.23
2019-05-02T01:21:28.789Z,21.45
2019-05-02T01:24:02.610Z,17.15
2019-05-02T01:26:30.614Z,21.15
2019-05-02T01:29:02.127Z,18.70
2019-05-02T01:31:49.967Z,17.12
2019-05-02T01:34:23.676Z,22.25
2019-05-02T01:37:01.045Z,22.50
2019-05-02T01:39:30.984Z,24.67
2019-05-02T01:42:04.012Z,19.30
2019-05-02T01:44:36.156Z,22.05
2019-05-02T01:47:01.904Z,20.05
2019-05-02T01:49:31.085Z,24.10
2019-05-02T01:52:00.297Z,21.15
2019-05-02T01:54:29.477Z,19.92
2019-05-02T01:56:58.662Z,20.92
2019-05-02T01:59:29.163Z,23.62
2019-05-02T02:01:59.680Z,35.50
2019-05-02T02:04:28.860Z,24.25
2019-05-02T02:06:58.003Z,24.07
2019-05-02T02:09:27.209Z,20.50
2019-05-02T02:11:56.355Z,18.92
2019-05-02T02:14:25.497Z,23.15
2019-05-02T02:16:54.644Z,21.90
2019-05-02T02:19:28.602Z,25.68
2019-05-02T02:22:02.928Z,23.98
2019-05-02T02:24:38.543Z,23.98
2019-05-02T02:27:07.685Z,25.17
2019-05-02T02:29:38.963Z,20.72
2019-05-02T02:32:08.525Z,26.07
2019-05-02T02:34:37.705Z,22.93
2019-05-02T02:37:13.145Z,21.90
2019-05-02T02:39:38.805Z,24.57
2019-05-02T02:42:07.985Z,24.40
2019-05-02T02:44:40.030Z,25.90
2019-05-02T02:47:12.015Z,21.52
2019-05-02T02:49:40.549Z,27.37
2019-05-02T02:52:09.696Z,26.27
2019-05-02T02:54:43.490Z,26.40
2019-05-02T02:57:20.534Z,23.38
2019-05-02T02:59:41.343Z,26.42
2019-05-02T03:02:12.155Z,26.68
2019-05-02T03:04:43.961Z,21.73
2019-05-02T03:07:24.648Z,27.67
2019-05-02T03:09:43.913Z,28.30
2019-05-02T03:12:23.457Z,30.60
2019-05-02T03:15:00.810Z,25.27
2019-05-02T03:17:51.721Z,28.17
2019-05-02T03:20:20.873Z,23.15
2019-05-02T03:22:50.057Z,24.25
2019-05-02T03:25:27.054Z,21.27
2019-05-02T03:27:50.671Z,29.45
2019-05-02T03:30:31.635Z,28.42
2019-05-02T03:33:06.480Z,24.52
2019-05-02T03:35:39.674Z,28.95
2019-05-02T03:37:53.945Z,26.77
2019-05-02T03:40:23.096Z,27.25
2019-05-02T03:42:52.252Z,28.57
2019-05-02T03:45:21.403Z,26.60
2019-05-02T03:47:50.581Z,33.50
2019-05-02T03:50:31.063Z,31.25
2019-05-02T03:52:50.669Z,27.52
2019-05-02T03:55:23.713Z,31.55
2019-05-02T03:57:50.739Z,23.83
2019-05-02T04:00:21.950Z,28.10
2019-05-02T04:02:58.925Z,26.57
2019-05-02T04:05:22.754Z,28.92
2019-05-02T04:07:52.497Z,28.87
2019-05-02T04:10:46.146Z,28.57
2019-05-02T04:13:15.802Z,27.85
2019-05-02T04:15:45.721Z,29.00
2019-05-02T04:18:17.588Z,25.92
2019-05-02T04:20:49.536Z,28.07
2019-05-02T04:23:21.175Z,22.32
2019-05-02T04:25:49.749Z,28.90
2019-05-02T04:28:18.890Z,29.37
2019-05-02T04:30:51.284Z,27.02
2019-05-02T04:33:18.937Z,23.35
2019-05-02T04:35:48.084Z,23.90
2019-05-02T04:38:21.407Z,24.65
2019-05-02T04:40:49.590Z,22.67
2019-05-02T04:43:19.408Z,25.15
2019-05-02T04:45:56.201Z,25.50
2019-05-02T04:48:19.645Z,25.27
2019-05-02T04:50:51.651Z,26.15
2019-05-02T04:53:25.887Z,27.62
2019-05-02T04:56:01.765Z,20.17
2019-05-02T04:58:27.553Z,25.05
2019-05-02T05:00:58.117Z,26.50
2019-05-02T05:03:23.922Z,24.20
2019-05-02T05:05:53.060Z,23.83
2019-05-02T05:08:26.623Z,21.17
2019-05-02T05:10:53.103Z,20.12
2019-05-02T05:13:23.308Z,24.47
2019-05-02T05:15:54.330Z,25.32
2019-05-02T05:18:24.138Z,18.70
2019-05-02T05:20:54.358Z,20.68
2019-05-02T05:23:25.507Z,23.50
2019-05-02T05:26:03.534Z,20.27
2019-05-02T05:28:29.936Z,22.45
2019-05-02T05:31:00.359Z,20.48
2019-05-02T05:33:29.492Z,20.77
2019-05-02T05:35:58.675Z,20.52
2019-05-02T05:38:31.969Z,20.20
2019-05-02T05:41:03.135Z,18.37
2019-05-02T05:43:29.590Z,16.20
2019-05-02T05:46:09.265Z,21.12
2019-05-02T05:48:32.204Z,19.57
2019-05-02T05:51:00.546Z,20.97
2019-05-02T05:53:29.680Z,19.27
2019-05-02T05:56:02.355Z,23.52
2019-05-02T05:58:30.619Z,21.57
2019-05-02T06:00:59.926Z,17.50
2019-05-02T06:03:29.062Z,18.82
2019-05-02T06:05:59.193Z,22.40
2019-05-02T06:08:28.371Z,15.70
2019-05-02T06:10:57.554Z,20.10
2019-05-02T06:13:26.733Z,24.00
2019-05-02T06:16:02.482Z,18.02
2019-05-02T06:18:28.415Z,23.77
2019-05-02T06:20:58.450Z,19.65
2019-05-02T06:23:31.054Z,16.40
2019-05-02T06:25:58.739Z,22.58
2019-05-02T06:28:27.904Z,17.92
2019-05-02T06:30:57.091Z,21.27
2019-05-02T06:33:30.543Z,23.15
2019-05-02T06:36:01.094Z,18.60
2019-05-02T06:38:29.144Z,18.12
2019-05-02T06:40:58.355Z,19.98
2019-05-02T06:43:27.487Z,18.42
2019-05-02T06:45:56.631Z,17.40
2019-05-02T06:48:25.824Z,19.80
2019-05-02T06:50:56.592Z,17.52
2019-05-02T06:53:26.667Z,18.90
2019-05-02T06:55:55.857Z,16.48
2019-05-02T06:58:25.025Z,18.70
2019-05-02T07:00:58.084Z,17.10
2019-05-02T07:03:27.517Z,16.35
2019-05-02T07:05:58.793Z,16.00
2019-05-02T07:08:26.921Z,18.17
2019-05-02T07:11:01.177Z,20.05
2019-05-02T07:13:26.959Z,26.65
2019-05-02T07:16:10.517Z,15.32
2019-05-02T07:18:57.692Z,15.72
2019-05-02T07:21:27.014Z,14.00
2019-05-02T07:23:56.253Z,17.37
2019-05-02T07:26:25.577Z,16.77
2019-05-02T07:28:54.716Z,19.20
2019-05-02T07:31:24.888Z,13.75
2019-05-02T07:33:54.859Z,14.83
2019-05-02T07:36:24.003Z,14.03
2019-05-02T07:38:57.541Z,18.75
2019-05-02T07:41:28.577Z,14.83
2019-05-02T07:43:56.326Z,12.43
2019-05-02T07:46:25.815Z,14.60
2019-05-02T07:48:56.578Z,13.55
2019-05-02T07:51:25.905Z,12.70
2019-05-02T07:53:55.779Z,14.25
2019-05-02T07:56:25.371Z,11.10
2019-05-02T07:58:55.104Z,13.60
2019-05-02T08:01:24.280Z,14.90
2019-05-02T08:03:53.413Z,12.85
2019-05-02T08:06:34.743Z,14.30
2019-05-02T08:08:53.503Z,11.20
2019-05-02T08:11:22.679Z,15.80
2019-05-02T08:13:55.676Z,13.25
2019-05-02T08:16:27.367Z,15.20
2019-05-02T08:18:53.629Z,11.57
2019-05-02T08:21:27.279Z,13.55
2019-05-02T08:23:57.270Z,14.87
2019-05-02T08:26:25.037Z,9.45
2019-05-02T08:29:02.636Z,13.03
2019-05-02T08:31:31.865Z,16.40
2019-05-02T08:34:05.303Z,15.13
2019-05-02T08:36:31.970Z,15.32
2019-05-02T08:39:01.148Z,21.60
2019-05-02T08:41:30.316Z,20.12
2019-05-02T08:43:59.452Z,12.55
2019-05-02T08:46:28.659Z,12.50
2019-05-02T08:48:57.795Z,9.55
2019-05-02T08:51:26.969Z,15.13
2019-05-02T08:53:56.754Z,14.23
2019-05-02T08:56:27.000Z,16.15
2019-05-02T08:58:56.176Z,11.38
2019-05-02T09:01:34.912Z,11.95
2019-05-02T09:03:57.057Z,16.23
2019-05-02T09:06:26.357Z,12.75
2019-05-02T09:08:55.526Z,14.75
2019-05-02T09:11:24.664Z,11.40
2019-05-02T09:13:53.840Z,12.70
2019-05-02T09:16:28.879Z,11.20
2019-05-02T09:18:54.410Z,11.70
2019-05-02T09:21:26.845Z,13.08
2019-05-02T09:23:54.633Z,12.98
2019-05-02T09:26:35.044Z,19.17
2019-05-02T09:28:56.276Z,14.38
2019-05-02T09:31:25.717Z,14.87
2019-05-02T09:33:55.660Z,16.95
2019-05-02T09:36:25.021Z,13.40
2019-05-02T09:38:57.586Z,14.90
2019-05-02T09:41:26.899Z,14.05
2019-05-02T09:43:56.093Z,13.65
2019-05-02T09:46:25.714Z,12.63
2019-05-02T09:48:57.191Z,9.15
2019-05-02T09:51:25.993Z,14.58
2019-05-02T09:53:57.209Z,15.35
2019-05-02T09:56:26.016Z,9.45
2019-05-02T09:59:04.812Z,14.47
2019-05-02T10:01:28.557Z,16.45
2019-05-02T10:03:57.742Z,13.88
2019-05-02T10:06:27.034Z,13.22
2019-05-02T10:08:56.693Z,14.65
2019-05-02T10:11:26.365Z,11.80
2019-05-02T10:13:56.511Z,15.68
2019-05-02T10:16:27.443Z,18.52
2019-05-02T10:19:00.298Z,10.82
2019-05-02T10:21:27.798Z,9.20
2019-05-02T10:23:59.488Z,14.38
2019-05-02T10:26:28.034Z,16.17
2019-05-02T10:28:57.213Z,13.43
2019-05-02T10:31:27.669Z,14.10
2019-05-02T10:33:57.431Z,15.50
2019-05-02T10:36:26.553Z,19.02
2019-05-02T10:38:59.177Z,11.83
2019-05-02T10:41:26.601Z,19.65
2019-05-02T10:43:59.344Z,15.65
2019-05-02T10:46:37.799Z,10.90
2019-05-02T10:49:13.213Z,12.60
2019-05-02T10:51:48.900Z,16.62
2019-05-02T10:54:13.210Z,15.70
2019-05-02T10:56:42.462Z,12.50
2019-05-02T10:59:11.939Z,15.18
2019-05-02T11:01:46.085Z,15.98
2019-05-02T11:04:16.721Z,10.18
2019-05-02T11:06:46.540Z,18.07
2019-05-02T11:09:16.829Z,16.42
2019-05-02T11:11:48.334Z,16.48
2019-05-02T11:14:35.484Z,11.83
2019-05-02T11:17:15.943Z,14.68
2019-05-02T11:19:42.084Z,13.00
2019-05-02T11:22:12.304Z,17.23
2019-05-02T11:24:42.239Z,13.25
2019-05-02T11:27:12.807Z,13.35
2019-05-02T11:29:42.836Z,13.32
2019-05-02T11:32:12.896Z,12.53
2019-05-02T11:34:42.723Z,13.08
2019-05-02T11:37:12.842Z,15.55
2019-05-02T11:39:48.513Z,11.48
2019-05-02T11:42:17.769Z,21.60
2019-05-02T11:44:45.140Z,14.33
2019-05-02T11:47:17.366Z,19.27
2019-05-02T11:49:46.858Z,20.92
2019-05-02T11:52:16.520Z,15.85
2019-05-02T11:54:48.450Z,14.05
2019-05-02T11:57:21.311Z,11.97
2019-05-02T11:59:47.450Z,13.13
2019-05-02T12:02:22.056Z,16.55
2019-05-02T12:04:54.471Z,20.05
2019-05-02T12:07:23.082Z,16.25
2019-05-02T12:09:56.976Z,14.70
2019-05-02T12:12:27.304Z,10.18
2019-05-02T12:14:54.199Z,11.20
2019-05-02T12:17:23.403Z,12.78
2019-05-02T12:19:52.771Z,14.00
2019-05-02T12:22:22.576Z,13.90
2019-05-02T12:24:52.418Z,13.65
2019-05-02T12:27:22.017Z,17.00
2019-05-02T12:29:57.796Z,16.60
2019-05-02T12:32:22.583Z,14.47
2019-05-02T12:37:32.605Z,13.30
2019-05-02T12:40:02.680Z,11.60
2019-05-02T12:42:33.087Z,15.53
2019-05-02T12:45:02.948Z,13.58
2019-05-02T12:47:32.175Z,13.88
2019-05-02T12:50:03.146Z,16.17
2019-05-02T12:52:32.299Z,14.13
2019-05-02T12:55:02.284Z,9.88
2019-05-02T12:57:32.107Z,12.28
2019-05-02T13:00:03.085Z,12.88
2019-05-02T13:02:41.700Z,12.07
2019-05-02T13:07:42.833Z,10.35
2019-05-02T13:10:11.857Z,14.58
2019-05-02T13:12:43.103Z,14.20
2019-05-02T13:15:12.825Z,15.05
2019-05-02T13:17:48.423Z,16.82
2019-05-02T13:20:14.784Z,13.43
2019-05-02T13:23:00.784Z,18.80
2019-05-02T13:25:35.226Z,16.23
2019-05-02T13:28:01.831Z,17.35
2019-05-02T13:30:43.006Z,16.27
2019-05-02T13:33:07.598Z,13.25
2019-05-02T13:35:38.410Z,16.55
2019-05-02T13:38:08.611Z,6.75
2019-05-02T13:40:41.792Z,13.18
2019-05-02T13:43:12.527Z,11.43
2019-05-02T13:45:49.955Z,14.55
2019-05-02T13:48:21.283Z,11.30
2019-05-02T13:50:51.840Z,12.33
2019-05-02T13:53:22.654Z,11.93
2019-05-02T13:55:57.847Z,11.22
2019-05-02T13:58:28.983Z,11.65
2019-05-02T14:00:58.172Z,11.68
2019-05-02T14:03:27.317Z,14.35
2019-05-02T14:05:56.452Z,9.43
2019-05-02T14:08:43.048Z,8.03
2019-05-02T14:11:23.008Z,15.88
2019-05-02T14:13:52.279Z,14.47
2019-05-02T14:16:22.164Z,13.22
2019-05-02T14:18:53.016Z,10.30
2019-05-02T14:21:22.486Z,13.93
2019-05-02T14:23:52.640Z,12.07
2019-05-02T14:26:30.196Z,5.45
2019-05-02T14:28:53.268Z,10.28
2019-05-02T14:31:22.577Z,9.15
2019-05-02T14:34:09.590Z,12.25
2019-05-02T14:36:39.342Z,10.78
2019-05-02T14:39:12.031Z,8.98
2019-05-02T14:41:44.499Z,15.98
2019-05-02T14:44:12.320Z,14.70
2019-05-02T14:46:42.574Z,22.58
2019-05-02T14:49:12.111Z,14.00
2019-05-02T14:51:41.840Z,12.25
2019-05-02T14:54:12.085Z,9.55
2019-05-02T14:56:47.543Z,11.78
2019-05-02T14:59:19.415Z,12.68
2019-05-02T15:01:47.133Z,12.50
2019-05-02T15:04:16.315Z,9.13
2019-05-02T15:06:47.395Z,12.33
2019-05-02T15:09:16.670Z,12.90
2019-05-02T15:11:59.170Z,6.53
2019-05-02T15:14:32.683Z,10.32
2019-05-02T15:17:02.661Z,14.50
2019-05-02T17:01:12.307Z,12.40
2019-05-02T17:03:42.465Z,8.48
2019-05-02T17:06:12.405Z,10.55
2019-05-02T17:08:44.509Z,6.87
2019-05-02T17:11:15.877Z,12.07
2019-05-02T17:13:45.273Z,9.75
2019-05-02T17:16:17.130Z,7.65
2019-05-02T17:18:48.369Z,7.67
2019-05-02T17:21:16.136Z,6.95
2019-05-02T17:23:47.431Z,9.55
2019-05-02T17:26:16.193Z,7.92
2019-05-02T17:28:47.271Z,10.98
2019-05-02T17:31:19.617Z,7.22
2019-05-02T17:33:51.065Z,8.53
2019-05-02T17:36:23.684Z,9.53
2019-05-02T17:38:48.792Z,8.45
2019-05-02T17:41:17.944Z,7.10
2019-05-02T17:43:48.948Z,6.00
2019-05-02T17:46:20.319Z,9.13
2019-05-02T17:48:52.750Z,7.17
2019-05-02T17:51:28.380Z,7.78
2019-05-02T17:53:54.926Z,9.25
2019-05-02T17:56:25.123Z,6.67
2019-05-02T17:58:58.363Z,8.80
2019-05-02T18:01:36.034Z,9.95
2019-05-02T18:04:06.750Z,9.28
2019-05-02T18:06:36.050Z,8.05
2019-05-02T18:09:07.105Z,10.10
2019-05-02T18:11:37.774Z,10.00
2019-05-02T18:14:18.569Z,7.15
2019-05-02T18:16:39.378Z,9.10
2019-05-02T18:19:08.865Z,9.75
2019-05-02T18:21:38.011Z,11.57
2019-05-02T18:24:07.243Z,8.70
2019-05-02T18:26:36.386Z,9.70
2019-05-02T18:29:06.964Z,6.83
2019-05-02T18:31:40.121Z,6.42
2019-05-02T18:34:07.215Z,8.55
2019-05-02T18:36:36.342Z,7.10
2019-05-02T18:39:08.091Z,11.43
2019-05-02T18:41:41.735Z,8.78
2019-05-02T18:44:08.107Z,9.10
2019-05-02T18:46:41.630Z,8.23
2019-05-02T18:49:08.095Z,6.62
2019-05-02T18:51:37.231Z,9.05
2019-05-02T18:54:07.667Z,9.05
2019-05-02T18:56:44.247Z,8.20
2019-05-02T18:59:07.819Z,7.47
2019-05-02T19:01:36.957Z,6.95
2019-05-02T19:04:06.104Z,11.05
2019-05-02T19:06:36.285Z,12.07
2019-05-02T19:09:08.383Z,8.55
2019-05-02T19:11:37.531Z,9.25
2019-05-02T19:14:06.675Z,11.93
2019-05-02T19:16:35.811Z,11.43
2019-05-02T19:19:04.970Z,11.18
2019-05-02T19:21:37.847Z,9.13
2019-05-02T19:24:06.115Z,10.88
2019-05-02T19:26:35.241Z,7.87
2019-05-02T19:29:08.552Z,10.13
2019-05-02T19:31:44.365Z,7.85
2019-05-02T19:34:09.458Z,9.83
2019-05-02T19:36:41.669Z,9.53
2019-05-02T19:39:11.348Z,14.28
2019-05-02T19:41:44.121Z,7.08
2019-05-02T19:44:11.347Z,10.03
2019-05-02T19:46:42.193Z,12.40
2019-05-02T19:49:15.862Z,9.15
2019-05-02T19:51:42.335Z,8.43
2019-05-02T19:54:12.483Z,8.73
2019-05-02T19:56:46.959Z,9.38
2019-05-02T19:59:16.805Z,10.38
2019-05-02T20:01:43.787Z,10.88
2019-05-02T20:04:12.935Z,12.23
2019-05-02T20:06:42.071Z,8.75
2019-05-02T20:09:11.307Z,10.55
2019-05-02T20:11:42.411Z,10.48
2019-05-02T20:14:12.523Z,7.35
2019-05-02T20:16:46.082Z,10.35
2019-05-02T20:19:17.305Z,9.15
2019-05-02T20:21:47.720Z,9.20
2019-05-02T20:24:19.396Z,8.68
2019-05-02T20:26:52.421Z,11.50
2019-05-02T20:29:18.603Z,9.58
2019-05-02T20:31:47.737Z,12.10
2019-05-02T20:34:16.896Z,8.10
2019-05-02T20:36:46.040Z,8.60
2019-05-02T20:39:15.163Z,9.40
2019-05-02T20:41:44.309Z,10.70
2019-05-02T20:44:13.485Z,9.58
2019-05-02T20:46:42.622Z,14.00
2019-05-02T20:49:12.861Z,8.43
2019-05-02T20:51:42.475Z,14.58
2019-05-02T20:54:12.518Z,10.32
2019-05-02T20:56:42.682Z,10.58
2019-05-02T20:59:12.708Z,13.48
2019-05-02T21:01:42.894Z,10.30
2019-05-02T21:04:12.286Z,8.70
2019-05-02T21:06:44.057Z,12.43
2019-05-02T21:09:18.019Z,9.85
2019-05-02T21:11:48.800Z,10.00
2019-05-02T21:14:17.947Z,12.33
2019-05-02T21:16:47.074Z,12.45
2019-05-02T21:19:16.216Z,11.93
2019-05-02T21:21:45.423Z,11.35
2019-05-02T21:24:14.564Z,8.80
2019-05-02T21:26:43.717Z,8.93
2019-05-02T21:29:12.851Z,10.10
2019-05-02T21:31:42.535Z,11.45
2019-05-02T21:34:12.036Z,12.50
2019-05-02T21:36:42.522Z,11.00
2019-05-02T21:39:12.626Z,12.07
2019-05-02T21:41:42.358Z,9.68
2019-05-02T21:44:13.187Z,11.00
2019-05-02T21:46:42.491Z,12.10
2019-05-02T21:49:13.732Z,9.45
2019-05-02T21:51:44.530Z,10.93
2019-05-02T21:54:18.039Z,11.83
2019-05-02T21:56:48.811Z,9.55
2019-05-02T21:59:17.956Z,11.22
2019-05-02T22:01:52.314Z,14.18
2019-05-02T22:04:22.445Z,10.32
2019-05-02T22:06:52.411Z,11.43
2019-05-02T22:09:23.104Z,12.37
2019-05-02T22:11:52.448Z,10.03
2019-05-02T22:14:22.343Z,14.18
2019-05-02T22:16:52.892Z,10.88
2019-05-02T22:19:22.430Z,14.40
2019-05-02T22:21:52.483Z,10.20
2019-05-02T22:24:21.976Z,17.25
2019-05-02T22:26:52.658Z,13.95
2019-05-02T22:29:22.226Z,16.60
2019-05-02T22:31:54.250Z,11.88
2019-05-02T22:34:22.542Z,12.98
2019-05-02T22:36:53.882Z,10.23
2019-05-02T22:39:24.282Z,12.85
2019-05-02T22:41:53.415Z,14.03
2019-05-02T22:44:22.547Z,11.85
2019-05-02T22:46:52.068Z,13.68
2019-05-02T22:49:22.505Z,14.43
2019-05-02T22:51:51.916Z,13.53
2019-05-02T22:54:27.849Z,15.00
2019-05-02T22:56:52.229Z,14.80
2019-05-02T22:59:23.660Z,13.78
2019-05-02T23:01:52.873Z,14.63
2019-05-02T23:04:23.584Z,12.82
2019-05-02T23:06:53.121Z,13.43
2019-05-02T23:09:22.311Z,15.38
2019-05-02T23:11:52.001Z,14.00
2019-05-02T23:14:22.160Z,12.80
2019-05-02T23:16:52.804Z,14.25
2019-05-02T23:19:22.960Z,15.05
2019-05-02T23:21:52.746Z,13.62
2019-05-02T23:24:38.462Z,14.95
2019-05-02T23:27:16.872Z,12.90
2019-05-02T23:29:46.014Z,15.15
2019-05-02T23:32:15.148Z,14.93
2019-05-02T23:34:44.308Z,12.50
2019-05-02T23:37:13.454Z,13.95
2019-05-02T23:39:42.591Z,14.33
2019-05-02T23:42:13.544Z,12.47
2019-05-02T23:44:42.778Z,12.37
2019-05-02T23:47:11.915Z,11.40
2019-05-02T23:49:42.681Z,12.53
2019-05-02T23:52:11.962Z,13.68
2019-05-02T23:54:50.119Z,13.00
2019-05-02T23:57:12.239Z,13.30
2019-05-02T23:59:42.447Z,16.37
